Time;durP1;ratioP1;P1;durP2;ratioP2;P2;SDS_P1;SDS_P2;PMS_P1;PMS_P2;Temp;Humidity;BMP_temperature;BMP_pressure;BME280_temperature;BME280_humidity;BME280_pressure;Samples;Min_cycle;Max_cycle;Signal;HPM_P1;HPM_P2
2022/05/18 00:00:32;;;;;;;4.63;3.40;;;18.20;97.80;;;18.62;66.75;94841.28;5067528;28;20471;-55
2022/05/18 00:03:03;;;;;;;8.83;4.10;;;18.20;97.60;;;18.59;66.11;94836.31;5066997;28;20453;-55
2022/05/18 00:05:31;;;;;;;4.23;3.93;;;18.20;97.70;;;18.58;66.38;94835.50;5068134;28;20563;-53
2022/05/18 00:07:58;;;;;;;3.77;3.57;;;18.20;97.80;;;18.57;66.04;94836.53;5068026;28;20509;-53
2022/05/18 00:10:25;;;;;;;3.73;3.33;;;18.20;97.60;;;18.57;66.08;94836.53;5067894;28;20612;-55
2022/05/18 00:12:54;;;;;;;4.10;3.70;;;18.10;97.50;;;18.54;66.54;94831.56;5067656;28;20956;-55
2022/05/18 00:15:23;;;;;;;5.47;4.30;;;18.10;97.60;;;18.53;66.36;94821.94;5067784;28;20459;-54
2022/05/18 00:17:51;;;;;;;3.50;3.30;;;18.10;97.40;;;18.55;66.27;94833.22;5066891;28;20462;-54
2022/05/18 00:20:19;;;;;;;3.87;3.63;;;18.10;97.40;;;18.55;66.77;94833.22;5068421;28;21003;-55
2022/05/18 00:22:47;;;;;;;7.43;3.70;;;18.10;97.70;;;18.52;66.07;94824.81;5067461;28;20500;-56
2022/05/18 00:25:15;;;;;;;3.80;3.50;;;18.10;97.60;;;18.49;66.61;94834.00;5064139;28;20475;-53
2022/05/18 00:27:42;;;;;;;3.60;3.50;;;18.10;97.90;;;18.47;66.63;94828.03;5068394;28;20459;-54
2022/05/18 00:30:17;;;;;;;3.53;3.23;;;18.10;97.60;;;18.43;66.20;94830.25;5065941;28;20494;-57
2022/05/18 00:32:44;;;;;;;6.50;3.40;;;18.10;97.60;;;18.41;66.17;94837.59;5068293;28;20459;-55
2022/05/18 00:35:12;;;;;;;3.60;3.10;;;18.00;97.60;;;18.41;67.02;94842.09;5069693;28;20463;-56
2022/05/18 00:37:39;;;;;;;6.30;3.50;;;18.00;97.80;;;18.40;66.62;94835.13;5064625;28;20987;-56
2022/05/18 00:40:08;;;;;;;3.90;3.60;;;18.00;97.50;;;18.36;65.96;94833.88;5067143;28;20472;-56
2022/05/18 00:42:36;;;;;;;8.53;3.67;;;18.00;97.60;;;18.38;66.10;94848.63;5066735;28;21044;-54
2022/05/18 00:45:03;;;;;;;5.90;3.90;;;18.00;97.60;;;18.36;66.47;94844.53;5068831;28;20975;-54
2022/05/18 00:47:32;;;;;;;4.07;3.70;;;18.00;97.50;;;18.35;66.30;94843.69;5067648;28;20889;-55
2022/05/18 00:50:04;;;;;;;4.03;3.60;;;18.00;97.70;;;18.33;65.91;94842.25;5066800;28;20501;-55
2022/05/18 00:52:35;;;;;;;3.93;3.63;;;17.90;97.50;;;18.29;66.37;94849.75;5067146;28;20795;-56
2022/05/18 00:55:02;;;;;;;4.63;4.37;;;17.90;97.30;;;18.24;66.01;94850.31;5069882;28;20455;-55
2022/05/18 00:57:33;;;;;;;3.97;3.30;;;17.80;97.40;;;18.23;66.80;94850.50;5066336;28;20459;-55
2022/05/18 01:00:05;;;;;;;6.97;3.60;;;17.80;97.70;;;18.20;66.16;94845.56;5066993;28;20447;-54
2022/05/18 01:02:36;;;;;;;4.00;3.70;;;17.80;97.70;;;18.18;65.88;94852.91;5066928;28;20454;-53
2022/05/18 01:05:06;;;;;;;4.97;3.30;;;17.80;97.40;;;18.16;66.75;94855.75;5064008;28;20982;-55
2022/05/18 01:07:34;;;;;;;4.00;3.40;;;17.80;97.60;;;18.15;65.91;94850.63;5066017;28;20470;-56
2022/05/18 01:10:02;;;;;;;5.07;3.63;;;17.80;97.40;;;18.13;66.14;94848.16;5065914;28;20490;-55
2022/05/18 01:12:29;;;;;;;4.03;3.77;;;17.70;97.60;;;18.11;66.50;94842.19;5066567;28;20532;-56
2022/05/18 01:14:58;;;;;;;3.90;3.70;;;17.70;97.80;;;18.10;66.21;94843.22;5066771;28;20463;-55
2022/05/18 01:17:27;;;;;;;4.50;4.10;;;17.70;97.50;;;18.10;66.89;94851.19;5065600;28;21043;-55
2022/05/18 01:19:57;;;;;;;5.10;3.70;;;17.70;98.10;;;18.06;66.50;94833.94;5066618;28;20501;-55
2022/05/18 01:22:30;;;;;;;4.27;3.97;;;17.70;97.80;;;18.04;66.25;94835.97;5066327;28;20461;-55
2022/05/18 01:25:06;;;;;;;4.40;3.90;;;17.60;97.60;;;18.02;66.79;94830.00;5066439;28;20451;-53
2022/05/18 01:27:35;;;;;;;3.87;3.67;;;17.60;97.80;;;17.99;66.73;94836.53;5067333;28;20970;-55
2022/05/18 01:30:03;;;;;;;5.43;4.63;;;17.60;97.70;;;17.98;66.71;94826.06;5067622;28;20565;-53
2022/05/18 01:32:39;;;;;;;4.77;4.30;;;17.60;97.50;;;17.96;66.35;94826.25;5068695;28;20451;-53
2022/05/18 01:35:08;;;;;;;4.10;3.87;;;17.60;97.70;;;17.94;66.61;94830.09;5068353;28;20467;-55
2022/05/18 01:37:35;;;;;;;6.43;4.20;;;17.60;97.90;;;17.94;66.46;94824.78;5063345;28;20462;-57
2022/05/18 01:40:08;;;;;;;5.70;3.50;;;17.50;97.70;;;17.92;66.53;94816.97;5067328;28;20463;-54
2022/05/18 01:42:38;;;;;;;5.87;4.37;;;17.50;97.70;;;17.90;66.55;94813.69;5065311;28;20458;-54
2022/05/18 01:45:07;;;;;;;9.53;4.03;;;17.50;97.60;;;17.86;66.88;94807.91;5066538;28;20499;-55
2022/05/18 01:47:34;;;;;;;6.27;4.63;;;17.50;97.80;;;17.89;66.38;94815.53;5066094;28;20978;-55
2022/05/18 01:50:02;;;;;;;6.43;4.70;;;17.50;97.80;;;17.88;66.86;94808.56;5066140;28;20487;-55
2022/05/18 01:52:29;;;;;;;5.10;4.70;;;17.50;97.90;;;17.88;66.87;94821.00;5066396;28;20983;-54
2022/05/18 01:54:56;;;;;;;4.33;3.93;;;17.50;97.70;;;17.86;66.86;94807.91;5065910;28;20470;-55
2022/05/18 01:57:24;;;;;;;4.00;3.70;;;17.50;97.90;;;17.84;66.51;94803.75;5064559;28;20459;-53
2022/05/18 01:59:52;;;;;;;3.63;3.10;;;17.50;97.70;;;17.82;67.26;94806.63;5064826;28;20462;-55
2022/05/18 02:02:20;;;;;;;4.20;3.77;;;17.40;98.10;;;17.78;66.38;94810.66;5064673;28;20948;-55
2022/05/18 02:04:47;;;;;;;3.70;3.40;;;17.40;98.00;;;17.73;67.13;94808.53;5066391;28;21030;-56
2022/05/18 02:07:14;;;;;;;5.37;4.00;;;17.40;98.10;;;17.71;66.71;94809.75;5067269;28;20474;-56
2022/05/18 02:09:42;;;;;;;4.00;3.80;;;17.30;97.70;;;17.69;66.67;94796.63;5065712;28;20541;-55
2022/05/18 02:12:11;;;;;;;4.20;3.50;;;17.30;97.70;;;17.67;66.61;94797.81;5066143;28;20490;-55
2022/05/18 02:14:38;;;;;;;3.67;3.47;;;17.30;97.70;;;17.65;66.38;94802.50;5065501;28;20463;-54
2022/05/18 02:17:07;;;;;;;3.10;3.00;;;17.20;97.40;;;17.62;66.46;94801.03;5065798;28;20521;-58
2022/05/18 02:19:34;;;;;;;3.60;3.40;;;17.20;97.40;;;17.60;66.61;94803.06;5064975;28;20450;-54
2022/05/18 02:22:01;;;;;;;3.47;3.27;;;17.20;97.40;;;17.61;66.59;94798.56;5063666;28;20486;-53
2022/05/18 02:24:29;;;;;;;2.90;2.70;;;17.20;97.40;;;17.59;66.02;94805.91;5067866;28;20843;-56
2022/05/18 02:26:56;;;;;;;5.20;2.80;;;17.20;97.20;;;17.59;66.25;94795.28;5065150;28;20558;-54
2022/05/18 02:29:23;;;;;;;3.37;3.17;;;17.20;97.20;;;17.60;65.79;94803.06;5066561;28;20454;-56
2022/05/18 02:31:50;;;;;;;3.67;3.40;;;17.20;97.20;;;17.61;65.80;94798.56;5069502;28;21026;-54
2022/05/18 02:34:19;;;;;;;3.00;2.83;;;17.20;97.20;;;17.60;66.16;94797.75;5069843;28;20471;-55
2022/05/18 02:36:48;;;;;;;3.23;3.03;;;17.20;97.40;;;17.62;66.88;94805.53;5068069;28;20475;-53
2022/05/18 02:39:15;;;;;;;3.27;2.97;;;17.20;97.60;;;17.62;66.15;94801.03;5068240;28;20512;-55
2022/05/18 02:41:44;;;;;;;3.10;3.00;;;17.20;97.20;;;17.62;65.71;94798.38;5067631;28;20991;-54
2022/05/18 02:44:11;;;;;;;3.60;3.40;;;17.20;97.20;;;17.63;66.11;94793.88;5069415;28;20462;-57
2022/05/18 02:46:38;;;;;;;3.40;3.10;;;17.20;97.40;;;17.64;66.16;94796.34;5069619;28;20980;-55
2022/05/18 02:49:06;;;;;;;3.03;2.83;;;17.30;97.40;;;17.65;66.48;94795.34;5068742;28;20935;-54
2022/05/18 02:51:35;;;;;;;3.67;3.40;;;17.30;97.50;;;17.67;66.71;94806.63;5067734;28;20490;-56
2022/05/18 02:56:05;;;;;;;3.20;2.83;;;17.30;98.00;;;17.71;66.24;94805.25;5069052;28;20459;-54
2022/05/18 02:56:48;;;;;;;3.40;3.20;;;17.30;97.30;;;17.74;65.80;94804.88;5065765;28;20469;-53
2022/05/18 02:59:16;;;;;;;3.97;2.87;;;17.30;97.30;;;17.78;66.17;94815.16;5066923;28;20450;-55
2022/05/18 03:01:43;;;;;;;3.30;2.83;;;17.40;97.30;;;17.79;66.14;94808.81;5067060;28;20474;-54
2022/05/18 03:04:10;;;;;;;3.67;3.30;;;17.40;97.40;;;17.80;65.61;94813.13;5068037;28;20462;-54
2022/05/18 03:06:39;;;;;;;4.00;3.80;;;17.40;97.20;;;17.82;65.83;94813.78;5069086;28;20553;-56
2022/05/18 03:09:06;;;;;;;5.33;3.07;;;17.40;97.30;;;17.83;65.92;94815.41;5069313;28;20454;-55
2022/05/18 03:11:33;;;;;;;3.63;3.33;;;17.50;97.20;;;17.85;65.65;94829.38;5067746;28;20497;-53
2022/05/18 03:14:01;;;;;;;3.77;3.50;;;17.40;97.20;;;17.88;66.27;94821.00;5066460;28;20451;-56
2022/05/18 03:16:28;;;;;;;3.20;2.90;;;17.50;97.50;;;17.88;65.98;94821.88;5067116;28;20478;-55
2022/05/18 03:18:55;;;;;;;5.13;3.13;;;17.50;97.20;;;17.91;65.64;94823.34;5069559;28;21218;-53
2022/05/18 03:24:10;;;;;;;4.33;3.93;;;17.50;97.10;;;17.90;65.70;94827.81;5065453;28;20484;-55
2022/05/18 03:26:38;;;;;;;3.60;3.30;;;17.50;97.10;;;17.90;66.05;94827.00;5067101;28;20474;-55
2022/05/18 03:29:05;;;;;;;3.83;3.63;;;17.50;97.40;;;17.90;66.06;94825.16;5068718;28;20454;-53
2022/05/18 03:31:32;;;;;;;3.73;3.53;;;17.50;97.20;;;17.92;65.82;94828.47;5065802;28;20496;-55
2022/05/18 03:34:00;;;;;;;4.10;3.60;;;17.50;97.30;;;17.97;65.70;94824.41;5067496;28;20523;-56
2022/05/18 03:36:27;;;;;;;4.73;3.20;;;17.60;97.20;;;18.01;65.63;94831.84;5065460;28;20471;-56
2022/05/18 03:38:55;;;;;;;3.50;3.20;;;17.60;97.30;;;18.03;66.04;94835.16;5066628;28;20501;-56
2022/05/18 03:41:24;;;;;;;9.33;4.17;;;17.60;97.20;;;18.05;65.98;94830.47;5067863;28;20566;-58
2022/05/18 03:43:51;;;;;;;3.90;3.60;;;17.70;97.30;;;18.07;66.09;94840.91;5067185;28;20455;-56
2022/05/18 03:46:18;;;;;;;3.60;3.40;;;17.70;97.40;;;18.08;66.09;94843.41;5068748;28;20506;-55
2022/05/18 03:48:46;;;;;;;7.20;4.40;;;17.70;97.40;;;18.12;66.09;94843.03;5068117;28;20466;-55
2022/05/18 03:51:16;;;;;;;5.23;4.73;;;17.70;97.30;;;18.13;65.63;94840.16;5069338;28;20513;-55
2022/05/18 03:53:43;;;;;;;4.33;4.03;;;17.70;97.20;;;18.16;65.63;94850.44;5066103;28;20475;-55
2022/05/18 03:56:11;;;;;;;4.77;4.47;;;17.70;97.20;;;18.20;65.50;94845.56;5067842;28;20536;-56
2022/05/18 03:58:40;;;;;;;4.40;4.10;;;17.80;97.30;;;18.25;65.42;94843.19;5066228;28;20945;-58
2022/05/18 04:01:09;;;;;;;5.23;4.73;;;17.80;97.10;;;18.31;65.48;94836.25;5065806;28;20479;-56
2022/05/18 04:03:38;;;;;;;10.00;5.30;;;17.90;97.10;;;18.36;65.37;94841.88;5062024;28;20537;-56
2022/05/18 04:06:06;;;;;;;5.90;4.97;;;17.90;97.20;;;18.41;65.65;94847.44;5065873;28;20475;-56
2022/05/18 04:08:33;;;;;;;6.60;4.30;;;18.00;97.10;;;18.45;65.81;94843.38;5066964;28;20884;-55
2022/05/18 04:11:00;;;;;;;13.17;4.50;;;18.00;97.10;;;18.50;64.85;94840.97;5066446;28;20695;-55
2022/05/18 04:13:27;;;;;;;7.67;4.67;;;18.10;97.00;;;18.54;65.28;94852.88;5065601;28;20989;-57
2022/05/18 04:15:56;;;;;;;7.30;4.67;;;18.10;97.00;;;18.58;64.97;94854.16;5062959;28;20471;-54
2022/05/18 04:18:23;;;;;;;6.33;4.80;;;18.10;97.00;;;18.64;65.57;94858.72;5066348;28;20451;-58
2022/05/18 04:20:51;;;;;;;5.50;4.47;;;18.20;97.10;;;18.69;65.67;94852.84;5062456;28;20482;-55
2022/05/18 04:23:18;;;;;;;8.77;5.60;;;18.30;97.00;;;18.72;65.42;94852.44;5067519;28;20458;-56
2022/05/18 04:25:45;;;;;;;6.60;5.87;;;18.30;97.00;;;18.77;65.68;94852.69;5065772;28;20920;-55
2022/05/18 04:28:14;;;;;;;8.53;7.30;;;18.40;97.00;;;18.80;64.96;94856.81;5067178;28;20947;-55
2022/05/18 04:30:42;;;;;;;12.23;11.00;;;18.40;96.80;;;18.80;65.22;94854.16;5066214;28;21052;-56
2022/05/18 04:33:11;;;;;;;9.00;8.10;;;18.40;96.60;;;18.80;64.79;94856.81;5065080;28;20485;-53
2022/05/18 04:35:39;;;;;;;8.50;7.70;;;18.40;96.80;;;18.81;64.90;94858.50;5067806;28;20490;-54
2022/05/18 04:38:06;;;;;;;16.50;5.27;;;18.40;96.80;;;18.84;65.28;94862.59;5067626;28;20463;-56
2022/05/18 04:40:34;;;;;;;5.77;5.17;;;18.40;96.80;;;18.86;64.75;94861.44;5066806;28;20475;-55
2022/05/18 04:43:01;;;;;;;8.60;4.90;;;18.40;96.80;;;18.89;65.29;94860.22;5065589;28;20582;-55
2022/05/18 04:45:29;;;;;;;5.90;5.50;;;18.50;96.80;;;18.91;65.07;94856.34;5066427;28;20483;-53
2022/05/18 04:47:56;;;;;;;7.73;5.40;;;18.50;96.90;;;18.95;65.49;94859.47;5066069;28;20459;-56
2022/05/18 04:50:25;;;;;;;6.57;5.20;;;18.50;96.90;;;18.98;65.52;94865.22;5067805;28;20481;-55
2022/05/18 04:52:52;;;;;;;7.63;6.27;;;18.60;97.00;;;19.02;65.32;94862.16;5065923;28;20548;-56
2022/05/18 04:55:20;;;;;;;5.77;5.27;;;18.60;96.80;;;19.05;65.58;94856.47;5067592;28;20487;-55
2022/05/18 04:57:47;;;;;;;10.60;7.03;;;18.60;96.90;;;19.08;64.92;94861.41;5067095;28;20873;-55
2022/05/18 05:00:16;;;;;;;6.90;6.33;;;18.70;96.90;;;19.10;64.90;94864.69;5064211;28;20475;-56
2022/05/18 05:02:43;;;;;;;6.53;5.23;;;18.70;96.90;;;19.13;65.22;94867.81;5061164;28;20462;-56
2022/05/18 05:05:14;;;;;;;5.60;5.30;;;18.70;96.80;;;19.16;65.44;94863.91;5062358;28;21069;-57
2022/05/18 05:07:43;;;;;;;6.00;5.47;;;18.70;96.90;;;19.15;64.42;94860.44;5063807;28;21001;-56
2022/05/18 05:10:10;;;;;;;5.43;4.93;;;18.80;96.60;;;19.15;65.09;94865.78;5066311;28;20974;-53
2022/05/18 05:12:37;;;;;;;6.50;5.30;;;18.70;96.70;;;19.16;64.74;94869.25;5062271;28;20568;-56
2022/05/18 05:15:07;;;;;;;10.30;5.93;;;18.80;96.70;;;19.15;64.71;94870.28;5066232;28;20549;-56
2022/05/18 05:17:35;;;;;;;8.73;6.40;;;18.80;96.90;;;19.13;65.34;94870.47;5066523;28;20491;-55
2022/05/18 05:20:02;;;;;;;10.00;5.97;;;18.80;97.10;;;19.13;65.60;94878.47;5066673;28;20947;-56
2022/05/18 05:22:29;;;;;;;16.40;6.93;;;18.70;96.90;;;19.14;65.58;94879.28;5064835;28;20451;-55
2022/05/18 05:24:58;;;;;;;12.53;7.20;;;18.70;97.00;;;19.12;65.29;94882.16;5065964;28;20446;-55
2022/05/18 05:27:25;;;;;;;6.77;6.10;;;18.70;97.10;;;19.12;65.72;94889.34;5063887;28;20498;-54
2022/05/18 05:29:52;;;;;;;9.13;6.90;;;18.70;97.20;;;19.12;65.33;94881.34;5066245;28;20473;-58
2022/05/18 05:32:20;;;;;;;6.83;6.20;;;18.70;97.10;;;19.12;65.66;94881.34;5064905;28;20487;-56
2022/05/18 05:34:47;;;;;;;6.80;6.10;;;18.70;97.50;;;19.10;66.44;94891.34;5066079;28;20459;-56
2022/05/18 05:37:14;;;;;;;5.90;5.40;;;18.70;97.50;;;19.08;65.31;94888.06;5065577;28;20478;-54
2022/05/18 05:39:41;;;;;;;12.50;7.13;;;18.70;97.20;;;19.06;65.92;94898.09;5065587;28;20943;-55
2022/05/18 05:42:12;;;;;;;9.03;6.83;;;18.70;97.30;;;19.04;65.78;94894.78;5062669;28;20485;-57
2022/05/18 05:44:39;;;;;;;6.00;5.50;;;18.60;97.40;;;19.02;66.56;94899.50;5065487;28;20486;-55
2022/05/18 05:47:08;;;;;;;6.80;6.20;;;18.60;97.60;;;19.00;66.87;94902.34;5066041;28;20471;-55
2022/05/18 05:49:37;;;;;;;6.40;5.60;;;18.60;97.90;;;18.97;66.28;94911.53;5066880;28;20453;-56
2022/05/18 05:52:06;;;;;;;7.13;6.00;;;18.60;98.00;;;18.95;66.89;94910.91;5065428;28;20571;-57
2022/05/18 05:54:33;;;;;;;7.73;6.10;;;18.60;98.00;;;18.96;66.66;94909.06;5065751;28;20986;-54
2022/05/18 05:57:03;;;;;;;7.03;6.43;;;18.60;98.10;;;18.95;66.66;94918.09;5065831;28;20550;-54
2022/05/18 05:59:32;;;;;;;6.77;6.17;;;18.60;98.30;;;18.95;67.49;94918.91;5065221;28;20971;-55
2022/05/18 06:02:00;;;;;;;9.93;7.90;;;18.60;98.60;;;18.93;67.97;94918.28;5064860;28;21057;-55
2022/05/18 06:04:31;;;;;;;9.40;7.20;;;18.50;98.80;;;18.94;68.29;94917.25;5065682;28;20570;-54
2022/05/18 06:06:58;;;;;;;10.37;7.23;;;18.50;98.90;;;18.92;67.51;94916.63;5062007;28;20550;-55
2022/05/18 06:09:25;;;;;;;13.27;7.20;;;18.60;99.00;;;18.89;68.62;94919.69;5065788;28;20869;-53
2022/05/18 06:11:53;;;;;;;9.20;7.87;;;18.50;99.30;;;18.88;68.87;94925.19;5065705;28;20505;-55
2022/05/18 06:14:20;;;;;;;13.60;8.43;;;18.50;99.60;;;18.82;68.53;94924.06;5065549;28;20520;-55
2022/05/18 06:16:48;;;;;;;10.57;8.40;;;18.50;99.40;;;18.76;69.17;94927.50;5065702;28;20498;-55
2022/05/18 06:19:16;;;;;;;9.63;6.87;;;18.40;99.60;;;18.71;69.20;94928.06;5065540;28;20451;-54
2022/05/18 06:21:43;;;;;;;8.63;6.10;;;18.40;99.70;;;18.68;68.41;94935.63;5065244;28;20474;-56
2022/05/18 06:24:11;;;;;;;6.50;5.90;;;18.30;99.40;;;18.64;69.10;94938.66;5065574;28;21040;-55
2022/05/18 06:26:38;;;;;;;6.60;5.80;;;18.30;99.70;;;18.61;69.06;94931.03;5065242;28;20470;-55
2022/05/18 06:29:05;;;;;;;6.00;5.40;;;18.30;99.90;;;18.61;69.11;94944.34;5065338;28;20454;-54
2022/05/18 06:31:33;;;;;;;6.37;5.77;;;18.20;99.70;;;18.60;69.71;94939.22;5062370;28;20515;-56
2022/05/18 06:34:01;;;;;;;6.33;5.87;;;18.20;99.90;;;18.58;69.61;94947.41;5064505;28;20451;-56
2022/05/18 06:36:30;;;;;;;6.80;6.10;;;18.20;99.90;;;18.56;69.31;94944.09;5063542;28;21018;-56
2022/05/18 06:38:57;;;;;;;6.00;5.47;;;18.20;99.90;;;18.56;69.41;94944.09;5065032;28;20505;-55
2022/05/18 06:41:24;;;;;;;8.97;5.83;;;18.20;99.90;;;18.57;69.81;94943.06;5065054;28;20478;-54
2022/05/18 06:43:53;;;;;;;5.77;5.37;;;18.20;99.90;;;18.58;70.01;94938.59;5064952;28;20450;-56
2022/05/18 06:46:21;;;;;;;6.50;5.77;;;18.20;99.90;;;18.59;70.33;94954.38;5065236;28;20504;-55
2022/05/18 06:48:48;;;;;;;6.70;6.10;;;18.20;99.90;;;18.61;70.11;94952.34;5064831;28;20829;-56
2022/05/18 06:51:21;;;;;;;6.40;5.90;;;18.20;99.90;;;18.64;70.18;94959.97;5064679;28;20971;-55
2022/05/18 06:53:51;;;;;;;6.97;5.97;;;18.30;99.90;;;18.68;70.26;94962.25;5064844;28;20496;-55
2022/05/18 06:56:19;;;;;;;6.67;5.60;;;18.30;99.90;;;18.70;70.14;94963.72;5065208;28;20475;-55
2022/05/18 06:58:48;;;;;;;7.40;5.63;;;18.30;99.90;;;18.74;69.58;94964.16;5064815;28;20478;-55
2022/05/18 07:01:15;;;;;;;9.33;4.80;;;18.40;99.90;;;18.78;69.61;94962.78;5064121;28;20558;-56
2022/05/18 07:03:43;;;;;;;6.17;5.67;;;18.40;99.90;;;18.85;70.04;94961.03;5060991;28;20836;-53
2022/05/18 07:06:10;;;;;;;7.10;6.37;;;18.40;99.90;;;18.92;69.32;94966.47;5064985;28;20466;-55
2022/05/18 07:08:39;;;;;;;6.53;5.83;;;18.50;99.90;;;18.96;68.81;94963.22;5064744;28;20862;-55
2022/05/18 07:11:07;;;;;;;6.03;5.40;;;18.60;99.90;;;19.02;69.37;94966.13;5064751;28;20539;-56
2022/05/18 07:13:34;;;;;;;5.97;5.50;;;18.60;99.90;;;19.07;69.65;94969.06;5064795;28;20486;-55
2022/05/18 07:16:02;;;;;;;6.73;6.00;;;18.70;99.90;;;19.13;69.37;94974.47;5066967;28;20497;-56
2022/05/18 07:18:30;;;;;;;5.90;5.40;;;18.70;99.90;;;19.19;68.89;94975.53;5068777;28;20530;-56
2022/05/18 07:20:57;;;;;;;8.63;6.47;;;18.80;99.90;;;19.24;68.84;94975.81;5068918;28;20501;-56
2022/05/18 07:23:25;;;;;;;7.57;5.67;;;18.80;99.90;;;19.28;69.15;94977.03;5068699;28;20516;-54
2022/05/18 07:25:54;;;;;;;6.00;5.57;;;18.90;99.90;;;19.30;69.29;94980.38;5068479;28;20483;-57
2022/05/18 07:28:22;;;;;;;8.57;7.43;;;18.90;99.90;;;19.31;69.00;94971.34;5068202;28;20467;-56
2022/05/18 07:30:49;;;;;;;7.17;6.57;;;18.90;99.90;;;19.30;68.41;94977.69;5068333;28;20995;-56
2022/05/18 07:33:17;;;;;;;8.47;7.70;;;18.90;99.80;;;19.31;68.73;94982.00;5064445;28;20551;-56
2022/05/18 07:35:44;;;;;;;8.83;7.10;;;18.90;99.80;;;19.32;68.47;94978.31;5068405;28;20474;-57
2022/05/18 07:38:11;;;;;;;12.20;7.90;;;18.90;99.70;;;19.35;68.76;94987.78;5068454;28;20515;-57
2022/05/18 07:40:38;;;;;;;8.17;7.40;;;19.00;99.60;;;19.39;68.48;94989.03;5068482;28;20473;-54
2022/05/18 07:43:07;;;;;;;8.13;7.53;;;19.00;99.40;;;19.44;67.96;94991.97;5068602;28;20512;-55
2022/05/18 07:45:35;;;;;;;8.27;7.47;;;19.00;99.40;;;19.48;68.29;94992.41;5067785;28;20465;-56
2022/05/18 07:48:02;;;;;;;9.43;7.70;;;19.00;99.40;;;19.55;68.08;94998.66;5068399;28;20833;-56
2022/05/18 07:50:30;;;;;;;8.60;7.80;;;19.10;99.30;;;19.62;67.72;94996.84;5067056;28;20766;-57
2022/05/18 07:52:59;;;;;;;14.93;8.60;;;19.20;99.30;;;19.67;67.46;94994.44;5067942;28;20492;-55
2022/05/18 07:55:26;;;;;;;12.50;9.20;;;19.30;99.00;;;19.77;67.69;94995.94;5068028;28;20546;-55
2022/05/18 07:57:54;;;;;;;9.30;8.40;;;19.40;99.20;;;19.88;66.89;94992.75;5066506;28;20451;-57
2022/05/18 08:00:24;;;;;;;9.20;8.13;;;19.40;99.00;;;19.96;66.97;94994.47;5067658;28;20479;-55
2022/05/18 08:02:51;;;;;;;11.90;7.60;;;19.50;98.80;;;20.02;66.71;94999.84;5066843;28;20451;-57
2022/05/18 08:05:18;;;;;;;8.63;7.83;;;19.60;98.70;;;20.09;nan;95007.06;5065084;28;20489;-57
2022/05/18 08:07:47;;;;;;;8.53;7.83;;;19.70;98.70;;;20.12;66.34;94998.66;5067809;28;20455;-54
2022/05/18 08:15:46;;;;;;;6.67;6.20;;;19.80;97.90;;;20.21;65.79;95008.16;5067274;28;20465;-55
2022/05/18 08:18:15;;;;;;;8.57;7.77;;;19.80;97.70;;;20.24;65.25;95013.13;5066757;28;20457;-56
2022/05/18 08:20:43;;;;;;;7.27;6.73;;;19.80;97.50;;;20.31;65.04;95015.81;5067583;28;20973;-55
2022/05/18 08:23:10;;;;;;;7.73;7.13;;;19.90;97.40;;;20.38;64.71;95014.03;5067500;28;20970;-56
2022/05/18 08:25:38;;;;;;;7.90;7.30;;;19.90;97.20;;;20.47;64.67;95012.03;5067197;28;20479;-57
2022/05/18 08:28:08;;;;;;;7.73;7.03;;;20.10;97.10;;;20.59;64.38;95007.78;5066499;28;20458;-55
2022/05/18 08:30:35;;;;;;;9.63;7.10;;;20.10;96.90;;;20.70;64.15;95009.09;5066510;28;20525;-55
2022/05/18 08:33:04;;;;;;;8.40;7.47;;;20.20;96.60;;;20.81;63.96;95002.34;5066111;28;20486;-56
2022/05/18 08:35:31;;;;;;;6.83;6.30;;;20.30;96.50;;;20.98;63.91;95008.16;5067117;28;20494;-55
2022/05/18 08:37:58;;;;;;;7.20;6.50;;;20.50;96.50;;;21.32;63.42;95015.22;5066804;28;20455;-56
2022/05/18 08:40:39;;;;;;;7.60;6.97;;;20.80;96.50;;;21.75;62.43;95003.34;5065481;28;20490;-55
2022/05/18 08:43:08;;;;;;;9.63;7.00;;;21.20;95.80;;;22.11;62.16;95010.94;5066126;28;20451;-54
2022/05/18 08:45:38;;;;;;;9.00;6.63;;;21.50;95.70;;;22.42;60.80;95009.47;5066673;28;20696;-56
2022/05/18 08:48:09;;;;;;;11.23;6.90;;;21.80;94.70;;;22.62;60.34;94997.84;5065011;28;21011;-58
2022/05/18 08:50:38;;;;;;;8.50;7.60;;;22.10;94.00;;;22.72;60.28;94998.25;5066748;28;20542;-56
2022/05/18 08:53:23;;;;;;;6.80;6.20;;;22.20;93.60;;;22.79;59.56;94988.31;5064940;28;21129;-55
2022/05/18 08:55:58;;;;;;;6.23;5.83;;;22.30;93.30;;;22.82;58.96;94995.09;5066051;28;20548;-55
2022/05/18 08:58:34;;;;;;;5.90;5.33;;;22.30;92.50;;;22.76;58.43;94986.06;5065319;28;20450;-54
2022/05/18 09:01:03;;;;;;;14.60;5.13;;;22.30;92.20;;;22.65;57.67;94986.69;5064621;28;20520;-56
2022/05/18 09:03:35;;;;;;;7.00;4.70;;;22.20;91.00;;;22.66;58.60;94985.69;5066186;28;20439;-56
2022/05/18 09:06:05;;;;;;;5.47;4.97;;;22.20;91.90;;;22.78;57.97;94975.13;5065998;28;20467;-55
2022/05/18 09:08:34;;;;;;;5.83;5.37;;;22.30;91.80;;;22.99;57.19;94976.66;5064390;28;20454;-54
2022/05/18 09:11:05;;;;;;;5.23;4.93;;;22.50;91.10;;;23.17;57.79;94984.84;5066100;28;21430;-55
2022/05/18 09:13:33;;;;;;;5.30;4.93;;;22.60;91.50;;;23.42;57.38;94984.06;5065537;28;20540;-57
2022/05/18 09:16:13;;;;;;;7.07;5.90;;;22.90;91.00;;;23.72;56.18;94980.72;5066349;28;20856;-56
2022/05/18 09:18:47;;;;;;;4.67;4.47;;;23.10;90.50;;;24.08;55.70;94980.03;5065286;28;20512;-54
2022/05/18 09:21:23;;;;;;;6.03;4.23;;;23.50;90.20;;;24.48;54.59;94978.81;5064519;28;20510;-58
2022/05/18 09:24:08;;;;;;;4.50;4.30;;;23.80;89.40;;;24.83;53.56;94970.13;5064516;28;20442;-56
2022/05/18 09:27:09;;;;;;;4.60;4.30;;;24.20;87.30;;;25.15;51.74;94972.63;5065827;28;20527;-56
2022/05/18 09:29:41;;;;;;;7.20;4.23;;;24.50;83.90;;;25.31;49.35;94958.53;5064076;28;20557;-56
2022/05/18 09:32:39;;;;;;;4.20;3.80;;;24.80;78.00;;;25.29;50.32;94968.72;5063256;28;20466;-56
2022/05/18 09:35:31;;;;;;;4.60;4.03;;;24.80;78.60;;;25.45;49.29;94961.84;5063118;28;20470;-61
2022/05/18 09:38:01;;;;;;;4.47;3.73;;;24.90;79.50;;;25.65;49.84;94960.72;5062943;28;20978;-56
2022/05/18 09:40:31;;;;;;;4.00;3.70;;;25.10;78.10;;;25.77;49.82;94956.16;5063523;28;20463;-54
2022/05/18 09:43:06;;;;;;;4.60;4.30;;;25.20;77.70;;;25.80;48.49;94962.97;5065856;28;20453;-56
2022/05/18 09:45:34;;;;;;;3.93;3.63;;;25.30;75.10;;;25.87;49.90;94959.13;5065676;28;20583;-57
2022/05/18 09:48:03;;;;;;;3.80;3.60;;;25.40;77.00;;;26.03;49.80;94967.59;5062656;28;20520;-56
2022/05/18 09:50:32;;;;;;;5.63;3.80;;;25.50;76.70;;;26.26;49.31;94959.50;5063046;28;20482;-55
2022/05/18 09:53:00;;;;;;;6.20;4.77;;;25.70;76.10;;;26.48;48.72;94959.69;5065742;28;20490;-55
2022/05/18 09:55:28;;;;;;;5.13;4.07;;;25.90;74.50;;;26.57;48.30;94953.91;5066032;28;20467;-55
2022/05/18 09:58:00;;;;;;;12.60;3.83;;;26.00;72.70;;;26.53;46.97;94982.44;5065071;28;20895;-55
2022/05/18 10:00:29;;;;;;;4.63;4.30;;;26.00;69.70;;;26.50;47.09;94975.63;5065257;28;20504;-56
2022/05/18 10:08:35;;;;;;;5.93;3.30;;;25.90;65.90;;;26.25;46.03;94978.59;5064798;28;20862;-56
2022/05/18 10:11:05;;;;;;;4.10;3.33;;;25.80;66.50;;;26.12;46.20;94976.97;5063077;28;20477;-56
2022/05/18 10:13:33;;;;;;;6.20;4.30;;;25.70;65.90;;;25.95;46.42;94991.09;5065415;28;20490;-57
2022/05/18 10:16:04;;;;;;;7.07;3.30;;;25.50;66.80;;;25.71;45.38;95003.72;5065290;28;20969;-55
2022/05/18 10:18:37;;;;;;;3.00;2.70;;;25.30;64.70;;;25.38;46.35;94993.47;5064678;28;20477;-57
2022/05/18 10:21:15;;;;;;;5.87;3.50;;;25.00;66.20;;;25.03;46.92;94994.09;5063080;28;20478;-57
2022/05/18 10:23:46;;;;;;;5.43;2.67;;;24.70;67.30;;;24.68;47.71;95011.72;5065208;28;20896;-56
2022/05/18 10:26:24;;;;;;;7.33;3.07;;;24.40;68.50;;;24.33;47.49;95011.44;5062287;28;20502;-55
2022/05/18 10:28:57;;;;;;;3.27;2.97;;;24.00;68.70;;;23.95;48.55;95018.59;5063290;28;20971;-56
2022/05/18 10:31:30;;;;;;;3.77;3.33;;;23.60;69.00;;;23.61;49.02;95026.06;5061728;28;20888;-57
2022/05/18 10:34:23;;;;;;;2.30;2.20;;;23.30;70.20;;;23.29;48.95;95030.59;5062526;28;20573;-55
2022/05/18 10:36:53;;;;;;;4.40;1.83;;;23.00;70.50;;;23.02;50.00;95036.09;5062997;28;20547;-56
2022/05/18 10:39:37;;;;;;;4.37;1.40;;;22.70;71.50;;;22.71;48.65;95037.66;5065703;28;20451;-55